sensor_id;sensor_type;location;lat;lon;timestamp;P1;durP1;ratioP1;P2;durP2;ratioP2
27833;SDS011;15200;50.570;7.244;2022-10-31T00:00:19;12.30;;;6.65;;
27833;SDS011;15200;50.570;7.244;2022-10-31T00:02:47;10.93;;;6.20;;
27833;SDS011;15200;50.570;7.244;2022-10-31T00:05:14;13.55;;;6.53;;
27833;SDS011;15200;50.570;7.244;2022-10-31T00:07:41;10.78;;;6.20;;
27833;SDS011;15200;50.570;7.244;2022-10-31T00:10:08;10.48;;;6.22;;
27833;SDS011;15200;50.570;7.244;2022-10-31T00:12:36;13.83;;;6.60;;
27833;SDS011;15200;50.570;7.244;2022-10-31T00:15:03;15.40;;;6.65;;
27833;SDS011;15200;50.570;7.244;2022-10-31T00:17:31;12.35;;;6.45;;
27833;SDS011;15200;50.570;7.244;2022-10-31T00:19:58;12.78;;;6.40;;
27833;SDS011;15200;50.570;7.244;2022-10-31T00:22:25;13.90;;;5.60;;
27833;SDS011;15200;50.570;7.244;2022-10-31T00:24:53;10.05;;;5.80;;
27833;SDS011;15200;50.570;7.244;2022-10-31T00:27:20;17.10;;;6.60;;
27833;SDS011;15200;50.570;7.244;2022-10-31T00:29:47;12.80;;;6.12;;
27833;SDS011;15200;50.570;7.244;2022-10-31T00:32:14;12.47;;;6.20;;
27833;SDS011;15200;50.570;7.244;2022-10-31T00:34:42;11.60;;;6.28;;
27833;SDS011;15200;50.570;7.244;2022-10-31T00:37:09;11.08;;;6.58;;
27833;SDS011;15200;50.570;7.244;2022-10-31T00:39:36;11.85;;;6.42;;
27833;SDS011;15200;50.570;7.244;2022-10-31T00:42:04;12.30;;;6.25;;
27833;SDS011;15200;50.570;7.244;2022-10-31T00:44:31;12.43;;;6.35;;
27833;SDS011;15200;50.570;7.244;2022-10-31T00:46:58;11.15;;;6.67;;
27833;SDS011;15200;50.570;7.244;2022-10-31T00:49:26;10.85;;;6.37;;
27833;SDS011;15200;50.570;7.244;2022-10-31T00:51:53;9.10;;;6.10;;
27833;SDS011;15200;50.570;7.244;2022-10-31T00:54:20;14.73;;;6.20;;
27833;SDS011;15200;50.570;7.244;2022-10-31T00:56:48;14.03;;;6.37;;
27833;SDS011;15200;50.570;7.244;2022-10-31T00:59:15;14.55;;;7.08;;
27833;SDS011;15200;50.570;7.244;2022-10-31T01:01:42;11.28;;;6.22;;
27833;SDS011;15200;50.570;7.244;2022-10-31T01:04:09;10.25;;;6.40;;
27833;SDS011;15200;50.570;7.244;2022-10-31T01:06:37;13.18;;;6.05;;
27833;SDS011;15200;50.570;7.244;2022-10-31T01:09:04;19.52;;;7.25;;
27833;SDS011;15200;50.570;7.244;2022-10-31T01:11:31;8.43;;;6.40;;
27833;SDS011;15200;50.570;7.244;2022-10-31T01:13:59;10.48;;;6.40;;
27833;SDS011;15200;50.570;7.244;2022-10-31T01:16:26;11.83;;;6.72;;
27833;SDS011;15200;50.570;7.244;2022-10-31T01:18:55;11.10;;;6.00;;
27833;SDS011;15200;50.570;7.244;2022-10-31T01:21:24;12.75;;;5.90;;
27833;SDS011;15200;50.570;7.244;2022-10-31T01:23:54;12.20;;;5.95;;
27833;SDS011;15200;50.570;7.244;2022-10-31T01:26:26;11.35;;;6.03;;
27833;SDS011;15200;50.570;7.244;2022-10-31T01:28:59;14.00;;;6.50;;
27833;SDS011;15200;50.570;7.244;2022-10-31T01:31:23;9.50;;;5.55;;
27833;SDS011;15200;50.570;7.244;2022-10-31T01:33:52;10.82;;;5.55;;
27833;SDS011;15200;50.570;7.244;2022-10-31T01:36:20;9.75;;;5.97;;
27833;SDS011;15200;50.570;7.244;2022-10-31T01:38:48;10.08;;;5.10;;
27833;SDS011;15200;50.570;7.244;2022-10-31T01:41:17;16.60;;;5.80;;
27833;SDS011;15200;50.570;7.244;2022-10-31T01:43:45;11.33;;;5.35;;
27833;SDS011;15200;50.570;7.244;2022-10-31T01:46:12;10.40;;;5.83;;
27833;SDS011;15200;50.570;7.244;2022-10-31T01:48:40;10.68;;;5.22;;
27833;SDS011;15200;50.570;7.244;2022-10-31T01:51:08;12.70;;;5.85;;
27833;SDS011;15200;50.570;7.244;2022-10-31T01:53:35;16.40;;;6.50;;
27833;SDS011;15200;50.570;7.244;2022-10-31T01:56:03;10.18;;;5.50;;
27833;SDS011;15200;50.570;7.244;2022-10-31T01:58:30;9.65;;;5.55;;
27833;SDS011;15200;50.570;7.244;2022-10-31T02:00:59;10.30;;;5.72;;
27833;SDS011;15200;50.570;7.244;2022-10-31T02:03:27;11.90;;;5.15;;
27833;SDS011;15200;50.570;7.244;2022-10-31T02:05:55;12.90;;;5.15;;
27833;SDS011;15200;50.570;7.244;2022-10-31T02:08:27;10.95;;;5.40;;
27833;SDS011;15200;50.570;7.244;2022-10-31T02:10:54;10.70;;;5.25;;
27833;SDS011;15200;50.570;7.244;2022-10-31T02:13:22;9.73;;;5.75;;
27833;SDS011;15200;50.570;7.244;2022-10-31T02:15:52;8.23;;;4.95;;
27833;SDS011;15200;50.570;7.244;2022-10-31T02:18:19;6.92;;;5.28;;
27833;SDS011;15200;50.570;7.244;2022-10-31T02:23:37;15.95;;;8.20;;
27833;SDS011;15200;50.570;7.244;2022-10-31T02:28:35;11.15;;;6.15;;
27833;SDS011;15200;50.570;7.244;2022-10-31T02:31:06;12.43;;;6.47;;
27833;SDS011;15200;50.570;7.244;2022-10-31T02:33:41;12.78;;;6.33;;
27833;SDS011;15200;50.570;7.244;2022-10-31T02:46:40;13.85;;;6.60;;
27833;SDS011;15200;50.570;7.244;2022-10-31T02:49:09;12.45;;;6.47;;
27833;SDS011;15200;50.570;7.244;2022-10-31T02:51:36;13.75;;;5.83;;
27833;SDS011;15200;50.570;7.244;2022-10-31T02:54:03;9.58;;;6.15;;
27833;SDS011;15200;50.570;7.244;2022-10-31T02:56:30;11.50;;;6.15;;
27833;SDS011;15200;50.570;7.244;2022-10-31T02:59:01;11.08;;;6.22;;
27833;SDS011;15200;50.570;7.244;2022-10-31T03:04:14;10.10;;;5.50;;
27833;SDS011;15200;50.570;7.244;2022-10-31T03:09:12;11.30;;;5.60;;
27833;SDS011;15200;50.570;7.244;2022-10-31T03:11:42;11.08;;;5.33;;
27833;SDS011;15200;50.570;7.244;2022-10-31T03:14:09;10.45;;;5.15;;
27833;SDS011;15200;50.570;7.244;2022-10-31T03:19:17;11.28;;;5.53;;
27833;SDS011;15200;50.570;7.244;2022-10-31T03:21:45;8.83;;;5.03;;
27833;SDS011;15200;50.570;7.244;2022-10-31T03:24:13;8.40;;;4.90;;
27833;SDS011;15200;50.570;7.244;2022-10-31T03:26:43;12.63;;;5.50;;
27833;SDS011;15200;50.570;7.244;2022-10-31T03:29:11;11.43;;;5.10;;
27833;SDS011;15200;50.570;7.244;2022-10-31T03:31:42;12.75;;;5.55;;
27833;SDS011;15200;50.570;7.244;2022-10-31T03:34:08;8.45;;;5.03;;
27833;SDS011;15200;50.570;7.244;2022-10-31T03:36:37;13.10;;;5.33;;
27833;SDS011;15200;50.570;7.244;2022-10-31T03:39:05;8.73;;;5.15;;
27833;SDS011;15200;50.570;7.244;2022-10-31T03:41:35;10.23;;;5.40;;
27833;SDS011;15200;50.570;7.244;2022-10-31T03:44:03;10.40;;;5.00;;
27833;SDS011;15200;50.570;7.244;2022-10-31T03:46:31;7.95;;;5.08;;
27833;SDS011;15200;50.570;7.244;2022-10-31T03:48:59;7.65;;;5.22;;
27833;SDS011;15200;50.570;7.244;2022-10-31T03:54:02;8.95;;;5.40;;
27833;SDS011;15200;50.570;7.244;2022-10-31T03:56:37;8.13;;;5.37;;
27833;SDS011;15200;50.570;7.244;2022-10-31T03:59:09;10.90;;;4.90;;
27833;SDS011;15200;50.570;7.244;2022-10-31T04:01:37;7.10;;;5.03;;
27833;SDS011;15200;50.570;7.244;2022-10-31T04:04:05;9.75;;;5.37;;
27833;SDS011;15200;50.570;7.244;2022-10-31T04:06:34;9.23;;;4.78;;
27833;SDS011;15200;50.570;7.244;2022-10-31T04:09:03;10.32;;;4.92;;
27833;SDS011;15200;50.570;7.244;2022-10-31T04:11:32;10.43;;;5.25;;
27833;SDS011;15200;50.570;7.244;2022-10-31T04:14:00;13.90;;;5.90;;
27833;SDS011;15200;50.570;7.244;2022-10-31T04:16:28;10.90;;;5.40;;
27833;SDS011;15200;50.570;7.244;2022-10-31T04:18:55;9.65;;;4.95;;
27833;SDS011;15200;50.570;7.244;2022-10-31T04:21:29;9.83;;;5.28;;
27833;SDS011;15200;50.570;7.244;2022-10-31T04:23:56;10.32;;;5.22;;
27833;SDS011;15200;50.570;7.244;2022-10-31T04:26:24;10.15;;;5.25;;
27833;SDS011;15200;50.570;7.244;2022-10-31T04:28:51;9.95;;;5.60;;
27833;SDS011;15200;50.570;7.244;2022-10-31T04:31:19;19.75;;;5.37;;
27833;SDS011;15200;50.570;7.244;2022-10-31T04:33:46;9.85;;;5.53;;
27833;SDS011;15200;50.570;7.244;2022-10-31T04:36:13;10.08;;;5.67;;
27833;SDS011;15200;50.570;7.244;2022-10-31T04:38:41;11.05;;;5.10;;
27833;SDS011;15200;50.570;7.244;2022-10-31T04:41:08;10.05;;;5.28;;
27833;SDS011;15200;50.570;7.244;2022-10-31T04:43:35;8.05;;;4.90;;
27833;SDS011;15200;50.570;7.244;2022-10-31T04:46:03;8.85;;;5.08;;
27833;SDS011;15200;50.570;7.244;2022-10-31T04:48:30;10.32;;;5.00;;
27833;SDS011;15200;50.570;7.244;2022-10-31T04:53:44;10.95;;;5.92;;
27833;SDS011;15200;50.570;7.244;2022-10-31T04:56:11;10.35;;;5.53;;
27833;SDS011;15200;50.570;7.244;2022-10-31T04:58:39;8.25;;;5.50;;
27833;SDS011;15200;50.570;7.244;2022-10-31T05:01:06;11.33;;;5.45;;
27833;SDS011;15200;50.570;7.244;2022-10-31T05:03:33;12.30;;;5.72;;
27833;SDS011;15200;50.570;7.244;2022-10-31T05:06:00;14.65;;;7.40;;
27833;SDS011;15200;50.570;7.244;2022-10-31T05:08:28;15.20;;;6.83;;
27833;SDS011;15200;50.570;7.244;2022-10-31T05:10:55;13.38;;;6.15;;
27833;SDS011;15200;50.570;7.244;2022-10-31T05:13:24;14.60;;;6.12;;
27833;SDS011;15200;50.570;7.244;2022-10-31T05:15:51;12.63;;;5.92;;
27833;SDS011;15200;50.570;7.244;2022-10-31T05:18:18;11.60;;;5.30;;
27833;SDS011;15200;50.570;7.244;2022-10-31T05:20:46;11.50;;;6.58;;
27833;SDS011;15200;50.570;7.244;2022-10-31T05:23:13;14.53;;;5.60;;
27833;SDS011;15200;50.570;7.244;2022-10-31T05:25:40;9.95;;;5.15;;
27833;SDS011;15200;50.570;7.244;2022-10-31T05:28:08;10.75;;;4.90;;
27833;SDS011;15200;50.570;7.244;2022-10-31T05:30:35;8.33;;;5.37;;
27833;SDS011;15200;50.570;7.244;2022-10-31T05:33:02;10.65;;;5.15;;
27833;SDS011;15200;50.570;7.244;2022-10-31T05:35:31;11.10;;;5.95;;
27833;SDS011;15200;50.570;7.244;2022-10-31T05:37:59;12.20;;;5.70;;
27833;SDS011;15200;50.570;7.244;2022-10-31T05:40:27;9.33;;;5.83;;
27833;SDS011;15200;50.570;7.244;2022-10-31T05:42:55;20.35;;;6.20;;
27833;SDS011;15200;50.570;7.244;2022-10-31T05:45:24;16.17;;;6.03;;
27833;SDS011;15200;50.570;7.244;2022-10-31T05:47:56;13.88;;;6.30;;
27833;SDS011;15200;50.570;7.244;2022-10-31T05:50:23;10.82;;;6.62;;
27833;SDS011;15200;50.570;7.244;2022-10-31T05:53:03;14.03;;;6.25;;
27833;SDS011;15200;50.570;7.244;2022-10-31T05:55:26;13.22;;;6.20;;
27833;SDS011;15200;50.570;7.244;2022-10-31T05:57:54;18.90;;;7.05;;
27833;SDS011;15200;50.570;7.244;2022-10-31T06:00:22;19.77;;;7.60;;
27833;SDS011;15200;50.570;7.244;2022-10-31T06:02:53;21.50;;;7.87;;
27833;SDS011;15200;50.570;7.244;2022-10-31T06:05:18;39.53;;;9.35;;
27833;SDS011;15200;50.570;7.244;2022-10-31T06:07:46;26.25;;;9.10;;
27833;SDS011;15200;50.570;7.244;2022-10-31T06:10:13;21.65;;;8.40;;
27833;SDS011;15200;50.570;7.244;2022-10-31T06:12:40;25.02;;;10.05;;
27833;SDS011;15200;50.570;7.244;2022-10-31T06:15:08;21.80;;;8.68;;
27833;SDS011;15200;50.570;7.244;2022-10-31T06:17:35;26.23;;;9.98;;
27833;SDS011;15200;50.570;7.244;2022-10-31T06:20:03;27.82;;;9.53;;
27833;SDS011;15200;50.570;7.244;2022-10-31T06:22:31;30.60;;;9.55;;
27833;SDS011;15200;50.570;7.244;2022-10-31T06:24:58;24.25;;;9.20;;
27833;SDS011;15200;50.570;7.244;2022-10-31T06:27:26;22.98;;;9.40;;
27833;SDS011;15200;50.570;7.244;2022-10-31T06:29:53;29.05;;;9.20;;
27833;SDS011;15200;50.570;7.244;2022-10-31T06:32:20;18.92;;;8.75;;
27833;SDS011;15200;50.570;7.244;2022-10-31T06:34:49;20.00;;;8.93;;
27833;SDS011;15200;50.570;7.244;2022-10-31T06:37:16;27.95;;;8.93;;
27833;SDS011;15200;50.570;7.244;2022-10-31T06:39:43;17.15;;;7.75;;
27833;SDS011;15200;50.570;7.244;2022-10-31T06:42:11;19.27;;;8.95;;
27833;SDS011;15200;50.570;7.244;2022-10-31T06:44:38;22.75;;;8.53;;
27833;SDS011;15200;50.570;7.244;2022-10-31T06:47:05;24.40;;;8.80;;
27833;SDS011;15200;50.570;7.244;2022-10-31T06:49:33;16.12;;;7.78;;
27833;SDS011;15200;50.570;7.244;2022-10-31T06:52:00;18.05;;;8.68;;
27833;SDS011;15200;50.570;7.244;2022-10-31T06:54:27;25.88;;;9.15;;
27833;SDS011;15200;50.570;7.244;2022-10-31T06:56:55;25.88;;;9.43;;
27833;SDS011;15200;50.570;7.244;2022-10-31T06:59:22;26.42;;;9.40;;
27833;SDS011;15200;50.570;7.244;2022-10-31T07:01:50;28.17;;;8.95;;
27833;SDS011;15200;50.570;7.244;2022-10-31T07:04:17;28.42;;;10.15;;
27833;SDS011;15200;50.570;7.244;2022-10-31T07:06:45;20.88;;;10.05;;
27833;SDS011;15200;50.570;7.244;2022-10-31T07:09:12;25.08;;;11.45;;
27833;SDS011;15200;50.570;7.244;2022-10-31T07:11:39;29.40;;;11.88;;
27833;SDS011;15200;50.570;7.244;2022-10-31T07:14:07;38.15;;;11.48;;
27833;SDS011;15200;50.570;7.244;2022-10-31T07:16:34;22.70;;;10.85;;
27833;SDS011;15200;50.570;7.244;2022-10-31T07:19:01;20.65;;;10.78;;
27833;SDS011;15200;50.570;7.244;2022-10-31T07:21:29;25.60;;;12.37;;
27833;SDS011;15200;50.570;7.244;2022-10-31T07:23:56;31.30;;;11.30;;
27833;SDS011;15200;50.570;7.244;2022-10-31T07:26:23;27.80;;;11.68;;
27833;SDS011;15200;50.570;7.244;2022-10-31T07:28:52;22.10;;;11.63;;
27833;SDS011;15200;50.570;7.244;2022-10-31T07:31:19;31.30;;;13.25;;
27833;SDS011;15200;50.570;7.244;2022-10-31T07:33:47;18.65;;;10.95;;
27833;SDS011;15200;50.570;7.244;2022-10-31T07:36:14;31.93;;;13.68;;
27833;SDS011;15200;50.570;7.244;2022-10-31T07:38:41;30.15;;;13.35;;
27833;SDS011;15200;50.570;7.244;2022-10-31T07:41:09;32.42;;;13.45;;
27833;SDS011;15200;50.570;7.244;2022-10-31T07:43:36;25.15;;;13.03;;
27833;SDS011;15200;50.570;7.244;2022-10-31T07:46:03;24.20;;;11.63;;
27833;SDS011;15200;50.570;7.244;2022-10-31T07:48:31;26.87;;;10.43;;
27833;SDS011;15200;50.570;7.244;2022-10-31T07:50:58;19.00;;;10.70;;
27833;SDS011;15200;50.570;7.244;2022-10-31T07:53:25;19.35;;;10.05;;
27833;SDS011;15200;50.570;7.244;2022-10-31T07:55:53;19.40;;;10.25;;
27833;SDS011;15200;50.570;7.244;2022-10-31T07:58:20;22.62;;;10.82;;
27833;SDS011;15200;50.570;7.244;2022-10-31T08:00:47;24.00;;;11.30;;
27833;SDS011;15200;50.570;7.244;2022-10-31T08:03:15;22.67;;;10.45;;
27833;SDS011;15200;50.570;7.244;2022-10-31T08:05:43;18.98;;;10.08;;
27833;SDS011;15200;50.570;7.244;2022-10-31T08:08:13;18.17;;;11.12;;
27833;SDS011;15200;50.570;7.244;2022-10-31T08:10:41;19.92;;;11.68;;
27833;SDS011;15200;50.570;7.244;2022-10-31T08:13:10;17.75;;;11.65;;
27833;SDS011;15200;50.570;7.244;2022-10-31T08:15:37;22.32;;;11.80;;
27833;SDS011;15200;50.570;7.244;2022-10-31T08:18:06;20.15;;;11.10;;
27833;SDS011;15200;50.570;7.244;2022-10-31T08:20:35;17.23;;;10.25;;
27833;SDS011;15200;50.570;7.244;2022-10-31T08:23:03;16.45;;;10.48;;
27833;SDS011;15200;50.570;7.244;2022-10-31T08:25:32;20.75;;;10.32;;
27833;SDS011;15200;50.570;7.244;2022-10-31T08:27:59;17.67;;;11.83;;
27833;SDS011;15200;50.570;7.244;2022-10-31T08:30:28;19.00;;;10.88;;
27833;SDS011;15200;50.570;7.244;2022-10-31T08:32:59;17.35;;;10.75;;
27833;SDS011;15200;50.570;7.244;2022-10-31T08:35:26;18.00;;;9.43;;
27833;SDS011;15200;50.570;7.244;2022-10-31T08:37:54;17.95;;;10.80;;
27833;SDS011;15200;50.570;7.244;2022-10-31T08:40:22;19.98;;;10.25;;
27833;SDS011;15200;50.570;7.244;2022-10-31T08:42:56;16.62;;;10.72;;
27833;SDS011;15200;50.570;7.244;2022-10-31T08:45:24;20.48;;;10.18;;
27833;SDS011;15200;50.570;7.244;2022-10-31T08:47:51;21.60;;;11.08;;
27833;SDS011;15200;50.570;7.244;2022-10-31T08:50:19;19.75;;;9.48;;
27833;SDS011;15200;50.570;7.244;2022-10-31T08:52:46;19.62;;;9.08;;
27833;SDS011;15200;50.570;7.244;2022-10-31T08:55:13;20.97;;;9.08;;
27833;SDS011;15200;50.570;7.244;2022-10-31T08:57:41;14.98;;;9.43;;
27833;SDS011;15200;50.570;7.244;2022-10-31T09:00:08;12.50;;;9.30;;
27833;SDS011;15200;50.570;7.244;2022-10-31T09:02:35;14.80;;;8.88;;
27833;SDS011;15200;50.570;7.244;2022-10-31T09:05:04;21.17;;;9.60;;
27833;SDS011;15200;50.570;7.244;2022-10-31T09:07:32;15.20;;;8.95;;
27833;SDS011;15200;50.570;7.244;2022-10-31T09:09:59;18.23;;;9.43;;
27833;SDS011;15200;50.570;7.244;2022-10-31T09:12:26;16.42;;;9.05;;
27833;SDS011;15200;50.570;7.244;2022-10-31T09:14:54;18.82;;;8.70;;
27833;SDS011;15200;50.570;7.244;2022-10-31T09:17:21;12.43;;;8.45;;
27833;SDS011;15200;50.570;7.244;2022-10-31T09:19:49;18.90;;;8.95;;
27833;SDS011;15200;50.570;7.244;2022-10-31T09:22:16;13.78;;;7.85;;
27833;SDS011;15200;50.570;7.244;2022-10-31T09:24:43;12.25;;;8.00;;
27833;SDS011;15200;50.570;7.244;2022-10-31T09:27:11;16.35;;;8.20;;
27833;SDS011;15200;50.570;7.244;2022-10-31T09:29:38;14.78;;;7.42;;
27833;SDS011;15200;50.570;7.244;2022-10-31T09:32:05;17.32;;;8.53;;
27833;SDS011;15200;50.570;7.244;2022-10-31T09:34:32;19.62;;;9.25;;
27833;SDS011;15200;50.570;7.244;2022-10-31T09:37:00;16.75;;;8.10;;
27833;SDS011;15200;50.570;7.244;2022-10-31T09:39:27;14.33;;;8.30;;
27833;SDS011;15200;50.570;7.244;2022-10-31T09:47:14;13.55;;;6.37;;
27833;SDS011;15200;50.570;7.244;2022-10-31T09:52:26;10.25;;;5.72;;
27833;SDS011;15200;50.570;7.244;2022-10-31T09:55:27;19.90;;;6.62;;
27833;SDS011;15200;50.570;7.244;2022-10-31T09:57:10;12.13;;;6.50;;
27833;SDS011;15200;50.570;7.244;2022-10-31T09:59:37;8.30;;;5.33;;
27833;SDS011;15200;50.570;7.244;2022-10-31T10:02:05;11.33;;;6.25;;
27833;SDS011;15200;50.570;7.244;2022-10-31T10:07:03;11.12;;;5.80;;
27833;SDS011;15200;50.570;7.244;2022-10-31T10:09:31;15.03;;;6.10;;
27833;SDS011;15200;50.570;7.244;2022-10-31T10:14:57;14.40;;;5.85;;
27833;SDS011;15200;50.570;7.244;2022-10-31T10:22:43;9.08;;;6.08;;
27833;SDS011;15200;50.570;7.244;2022-10-31T10:30:21;13.25;;;5.78;;
27833;SDS011;15200;50.570;7.244;2022-10-31T10:32:53;10.53;;;5.65;;
27833;SDS011;15200;50.570;7.244;2022-10-31T10:35:45;13.00;;;6.17;;
27833;SDS011;15200;50.570;7.244;2022-10-31T10:38:17;10.60;;;5.78;;
27833;SDS011;15200;50.570;7.244;2022-10-31T10:40:44;13.98;;;5.95;;
27833;SDS011;15200;50.570;7.244;2022-10-31T10:43:20;14.05;;;5.58;;
27833;SDS011;15200;50.570;7.244;2022-10-31T10:51:22;11.43;;;5.42;;
27833;SDS011;15200;50.570;7.244;2022-10-31T10:54:04;12.40;;;5.47;;
27833;SDS011;15200;50.570;7.244;2022-10-31T10:56:51;11.00;;;5.25;;
27833;SDS011;15200;50.570;7.244;2022-10-31T10:59:19;11.65;;;5.67;;
27833;SDS011;15200;50.570;7.244;2022-10-31T11:01:48;11.88;;;5.67;;
27833;SDS011;15200;50.570;7.244;2022-10-31T11:04:34;14.47;;;6.67;;
27833;SDS011;15200;50.570;7.244;2022-10-31T11:07:10;10.93;;;5.42;;
27833;SDS011;15200;50.570;7.244;2022-10-31T11:09:34;11.12;;;5.47;;
27833;SDS011;15200;50.570;7.244;2022-10-31T11:12:09;12.33;;;6.20;;
27833;SDS011;15200;50.570;7.244;2022-10-31T11:14:42;9.85;;;5.53;;
27833;SDS011;15200;50.570;7.244;2022-10-31T11:17:34;14.28;;;5.20;;
27833;SDS011;15200;50.570;7.244;2022-10-31T11:20:26;10.30;;;5.67;;
27833;SDS011;15200;50.570;7.244;2022-10-31T11:22:34;15.30;;;6.42;;
27833;SDS011;15200;50.570;7.244;2022-10-31T11:25:11;13.53;;;6.10;;
27833;SDS011;15200;50.570;7.244;2022-10-31T11:27:30;9.75;;;5.85;;
27833;SDS011;15200;50.570;7.244;2022-10-31T11:30:05;8.80;;;5.25;;
27833;SDS011;15200;50.570;7.244;2022-10-31T11:32:32;8.68;;;5.55;;
27833;SDS011;15200;50.570;7.244;2022-10-31T11:35:00;8.25;;;4.95;;
27833;SDS011;15200;50.570;7.244;2022-10-31T11:37:29;15.00;;;5.60;;
27833;SDS011;15200;50.570;7.244;2022-10-31T11:39:58;13.70;;;4.95;;
27833;SDS011;15200;50.570;7.244;2022-10-31T11:42:27;9.58;;;5.42;;
27833;SDS011;15200;50.570;7.244;2022-10-31T11:44:55;15.50;;;5.22;;
27833;SDS011;15200;50.570;7.244;2022-10-31T11:47:25;11.73;;;4.78;;
27833;SDS011;15200;50.570;7.244;2022-10-31T11:49:52;9.58;;;4.70;;
27833;SDS011;15200;50.570;7.244;2022-10-31T11:52:26;10.30;;;4.53;;
27833;SDS011;15200;50.570;7.244;2022-10-31T11:54:55;12.65;;;4.72;;
27833;SDS011;15200;50.570;7.244;2022-10-31T11:57:27;14.53;;;4.83;;
27833;SDS011;15200;50.570;7.244;2022-10-31T11:59:59;9.30;;;4.25;;
27833;SDS011;15200;50.570;7.244;2022-10-31T12:02:26;14.10;;;5.03;;
27833;SDS011;15200;50.570;7.244;2022-10-31T12:05:17;10.72;;;4.83;;
27833;SDS011;15200;50.570;7.244;2022-10-31T12:07:38;10.18;;;4.80;;
27833;SDS011;15200;50.570;7.244;2022-10-31T12:10:09;7.25;;;4.30;;
27833;SDS011;15200;50.570;7.244;2022-10-31T12:15:31;9.98;;;4.80;;
27833;SDS011;15200;50.570;7.244;2022-10-31T12:23:05;10.68;;;5.40;;
27833;SDS011;15200;50.570;7.244;2022-10-31T12:36:29;8.70;;;4.37;;
27833;SDS011;15200;50.570;7.244;2022-10-31T12:44:05;9.58;;;4.70;;
27833;SDS011;15200;50.570;7.244;2022-10-31T12:46:40;10.90;;;4.17;;
27833;SDS011;15200;50.570;7.244;2022-10-31T12:54:25;12.43;;;4.30;;
27833;SDS011;15200;50.570;7.244;2022-10-31T12:56:59;8.18;;;4.10;;
27833;SDS011;15200;50.570;7.244;2022-10-31T13:04:47;12.50;;;5.00;;
27833;SDS011;15200;50.570;7.244;2022-10-31T13:07:15;10.68;;;4.53;;
27833;SDS011;15200;50.570;7.244;2022-10-31T13:10:01;9.43;;;4.42;;
27833;SDS011;15200;50.570;7.244;2022-10-31T13:12:15;9.43;;;4.30;;
27833;SDS011;15200;50.570;7.244;2022-10-31T13:14:51;9.30;;;4.70;;
27833;SDS011;15200;50.570;7.244;2022-10-31T13:17:26;9.13;;;4.75;;
27833;SDS011;15200;50.570;7.244;2022-10-31T13:19:51;9.18;;;4.15;;
27833;SDS011;15200;50.570;7.244;2022-10-31T13:22:20;8.05;;;4.40;;
27833;SDS011;15200;50.570;7.244;2022-10-31T13:24:59;12.63;;;4.50;;
27833;SDS011;15200;50.570;7.244;2022-10-31T13:30:05;7.37;;;4.25;;
27833;SDS011;15200;50.570;7.244;2022-10-31T13:32:42;10.55;;;4.35;;
27833;SDS011;15200;50.570;7.244;2022-10-31T13:37:58;9.20;;;4.50;;
27833;SDS011;15200;50.570;7.244;2022-10-31T13:40:36;10.72;;;4.47;;
27833;SDS011;15200;50.570;7.244;2022-10-31T13:45:31;8.15;;;4.70;;
27833;SDS011;15200;50.570;7.244;2022-10-31T13:47:59;14.73;;;5.00;;
27833;SDS011;15200;50.570;7.244;2022-10-31T13:50:28;11.45;;;4.62;;
27833;SDS011;15200;50.570;7.244;2022-10-31T13:53:12;15.13;;;4.97;;
27833;SDS011;15200;50.570;7.244;2022-10-31T13:55:40;10.13;;;4.70;;
27833;SDS011;15200;50.570;7.244;2022-10-31T13:58:31;9.80;;;5.15;;
27833;SDS011;15200;50.570;7.244;2022-10-31T14:03:43;11.05;;;4.50;;
27833;SDS011;15200;50.570;7.244;2022-10-31T14:06:10;15.32;;;5.28;;
27833;SDS011;15200;50.570;7.244;2022-10-31T14:08:40;12.73;;;5.40;;
27833;SDS011;15200;50.570;7.244;2022-10-31T14:11:07;10.63;;;5.15;;
27833;SDS011;15200;50.570;7.244;2022-10-31T14:13:36;14.85;;;5.67;;
27833;SDS011;15200;50.570;7.244;2022-10-31T14:16:05;13.60;;;5.25;;
27833;SDS011;15200;50.570;7.244;2022-10-31T14:18:34;13.05;;;5.50;;
27833;SDS011;15200;50.570;7.244;2022-10-31T14:21:12;11.53;;;5.00;;
27833;SDS011;15200;50.570;7.244;2022-10-31T14:26:19;13.95;;;5.75;;
27833;SDS011;15200;50.570;7.244;2022-10-31T14:28:47;10.32;;;5.33;;
27833;SDS011;15200;50.570;7.244;2022-10-31T14:31:28;12.07;;;4.85;;
27833;SDS011;15200;50.570;7.244;2022-10-31T14:34:04;13.10;;;4.92;;
27833;SDS011;15200;50.570;7.244;2022-10-31T14:36:41;10.95;;;4.70;;
27833;SDS011;15200;50.570;7.244;2022-10-31T14:44:41;11.12;;;4.20;;
27833;SDS011;15200;50.570;7.244;2022-10-31T14:47:22;10.63;;;4.37;;
27833;SDS011;15200;50.570;7.244;2022-10-31T14:52:36;7.70;;;4.20;;
27833;SDS011;15200;50.570;7.244;2022-10-31T14:55:05;9.40;;;4.42;;
27833;SDS011;15200;50.570;7.244;2022-10-31T14:57:34;9.23;;;4.62;;
27833;SDS011;15200;50.570;7.244;2022-10-31T15:00:06;7.87;;;3.80;;
27833;SDS011;15200;50.570;7.244;2022-10-31T15:02:37;19.60;;;4.33;;
27833;SDS011;15200;50.570;7.244;2022-10-31T15:05:07;10.58;;;4.00;;
27833;SDS011;15200;50.570;7.244;2022-10-31T15:07:32;6.92;;;4.55;;
27833;SDS011;15200;50.570;7.244;2022-10-31T15:10:03;11.45;;;3.85;;
27833;SDS011;15200;50.570;7.244;2022-10-31T15:12:30;12.13;;;3.80;;
27833;SDS011;15200;50.570;7.244;2022-10-31T15:14:58;9.80;;;4.33;;
27833;SDS011;15200;50.570;7.244;2022-10-31T15:17:26;13.38;;;3.98;;
27833;SDS011;15200;50.570;7.244;2022-10-31T15:19:53;16.82;;;4.83;;
27833;SDS011;15200;50.570;7.244;2022-10-31T15:22:23;12.35;;;4.30;;
27833;SDS011;15200;50.570;7.244;2022-10-31T15:24:50;8.48;;;4.35;;
27833;SDS011;15200;50.570;7.244;2022-10-31T15:27:19;12.60;;;5.00;;
27833;SDS011;15200;50.570;7.244;2022-10-31T15:29:56;11.60;;;4.17;;
27833;SDS011;15200;50.570;7.244;2022-10-31T15:32:20;12.20;;;4.60;;
27833;SDS011;15200;50.570;7.244;2022-10-31T15:34:49;16.52;;;4.50;;
27833;SDS011;15200;50.570;7.244;2022-10-31T15:37:18;10.55;;;4.37;;
27833;SDS011;15200;50.570;7.244;2022-10-31T15:39:46;8.35;;;3.95;;
27833;SDS011;15200;50.570;7.244;2022-10-31T15:42:21;10.05;;;4.08;;
27833;SDS011;15200;50.570;7.244;2022-10-31T15:45:02;13.25;;;4.65;;
27833;SDS011;15200;50.570;7.244;2022-10-31T15:47:30;12.85;;;4.37;;
27833;SDS011;15200;50.570;7.244;2022-10-31T15:49:58;15.93;;;4.87;;
27833;SDS011;15200;50.570;7.244;2022-10-31T15:52:30;10.10;;;4.62;;
27833;SDS011;15200;50.570;7.244;2022-10-31T15:55:05;12.40;;;4.87;;
27833;SDS011;15200;50.570;7.244;2022-10-31T15:57:33;10.28;;;4.50;;
27833;SDS011;15200;50.570;7.244;2022-10-31T16:00:00;10.80;;;4.12;;
27833;SDS011;15200;50.570;7.244;2022-10-31T16:02:27;9.30;;;4.62;;
27833;SDS011;15200;50.570;7.244;2022-10-31T16:04:58;9.88;;;4.50;;
27833;SDS011;15200;50.570;7.244;2022-10-31T16:07:28;10.32;;;4.05;;
27833;SDS011;15200;50.570;7.244;2022-10-31T16:09:57;12.43;;;5.28;;
27833;SDS011;15200;50.570;7.244;2022-10-31T16:12:26;14.07;;;5.15;;
27833;SDS011;15200;50.570;7.244;2022-10-31T16:14:53;11.10;;;4.33;;
27833;SDS011;15200;50.570;7.244;2022-10-31T16:17:21;12.35;;;4.37;;
27833;SDS011;15200;50.570;7.244;2022-10-31T16:19:51;16.67;;;5.45;;
27833;SDS011;15200;50.570;7.244;2022-10-31T16:22:24;14.30;;;5.25;;
27833;SDS011;15200;50.570;7.244;2022-10-31T16:27:33;10.03;;;4.65;;
27833;SDS011;15200;50.570;7.244;2022-10-31T16:30:02;8.25;;;5.10;;
27833;SDS011;15200;50.570;7.244;2022-10-31T16:32:34;13.85;;;5.12;;
27833;SDS011;15200;50.570;7.244;2022-10-31T16:37:48;10.08;;;5.40;;
27833;SDS011;15200;50.570;7.244;2022-10-31T16:40:16;12.13;;;4.80;;
27833;SDS011;15200;50.570;7.244;2022-10-31T16:42:44;12.30;;;5.17;;
27833;SDS011;15200;50.570;7.244;2022-10-31T16:47:45;13.25;;;5.10;;